sensor_id;sensor_type;location;lat;lon;timestamp;P1;durP1;ratioP1;P2;durP2;ratioP2
51438;SDS011;38816;51.142;-0.974;2022-10-30T00:00:28;25.60;;;3.15;;
51438;SDS011;38816;51.142;-0.974;2022-10-30T00:02:53;34.78;;;3.10;;
51438;SDS011;38816;51.142;-0.974;2022-10-30T00:05:19;20.60;;;2.47;;
51438;SDS011;38816;51.142;-0.974;2022-10-30T00:07:48;33.22;;;2.75;;
51438;SDS011;38816;51.142;-0.974;2022-10-30T00:10:14;27.10;;;2.75;;
51438;SDS011;38816;51.142;-0.974;2022-10-30T00:12:40;24.42;;;2.42;;
51438;SDS011;38816;51.142;-0.974;2022-10-30T00:15:06;31.77;;;3.60;;
51438;SDS011;38816;51.142;-0.974;2022-10-30T00:17:32;19.70;;;2.88;;
51438;SDS011;38816;51.142;-0.974;2022-10-30T00:19:58;23.90;;;2.70;;
51438;SDS011;38816;51.142;-0.974;2022-10-30T00:22:23;27.10;;;2.47;;
51438;SDS011;38816;51.142;-0.974;2022-10-30T00:24:49;19.75;;;2.78;;
51438;SDS011;38816;51.142;-0.974;2022-10-30T00:27:14;28.27;;;3.15;;
51438;SDS011;38816;51.142;-0.974;2022-10-30T00:29:40;26.60;;;3.50;;
51438;SDS011;38816;51.142;-0.974;2022-10-30T00:32:06;18.00;;;2.60;;
51438;SDS011;38816;51.142;-0.974;2022-10-30T00:34:31;24.75;;;3.35;;
51438;SDS011;38816;51.142;-0.974;2022-10-30T00:36:57;20.85;;;3.33;;
51438;SDS011;38816;51.142;-0.974;2022-10-30T00:39:22;23.95;;;2.80;;
51438;SDS011;38816;51.142;-0.974;2022-10-30T00:41:47;21.60;;;2.92;;
51438;SDS011;38816;51.142;-0.974;2022-10-30T00:47:12;24.85;;;3.05;;
51438;SDS011;38816;51.142;-0.974;2022-10-30T00:49:47;28.30;;;3.33;;
51438;SDS011;38816;51.142;-0.974;2022-10-30T00:52:18;26.15;;;2.85;;
51438;SDS011;38816;51.142;-0.974;2022-10-30T00:54:46;26.80;;;3.28;;
51438;SDS011;38816;51.142;-0.974;2022-10-30T00:57:12;25.83;;;3.63;;
51438;SDS011;38816;51.142;-0.974;2022-10-30T00:59:38;23.45;;;3.33;;
51438;SDS011;38816;51.142;-0.974;2022-10-30T01:02:04;26.38;;;4.15;;
51438;SDS011;38816;51.142;-0.974;2022-10-30T01:04:30;26.23;;;3.65;;
51438;SDS011;38816;51.142;-0.974;2022-10-30T01:07:01;26.05;;;3.55;;
51438;SDS011;38816;51.142;-0.974;2022-10-30T01:09:34;19.00;;;2.33;;
51438;SDS011;38816;51.142;-0.974;2022-10-30T01:11:59;35.88;;;3.25;;
51438;SDS011;38816;51.142;-0.974;2022-10-30T01:14:25;39.35;;;3.17;;
51438;SDS011;38816;51.142;-0.974;2022-10-30T01:16:56;29.40;;;3.15;;
51438;SDS011;38816;51.142;-0.974;2022-10-30T01:33:27;39.47;;;3.28;;
51438;SDS011;38816;51.142;-0.974;2022-10-30T01:39:06;28.25;;;3.03;;
51438;SDS011;38816;51.142;-0.974;2022-10-30T01:41:36;21.55;;;2.65;;
51438;SDS011;38816;51.142;-0.974;2022-10-30T01:44:04;32.33;;;2.72;;
51438;SDS011;38816;51.142;-0.974;2022-10-30T01:46:51;25.40;;;3.30;;
51438;SDS011;38816;51.142;-0.974;2022-10-30T01:54:51;33.88;;;3.10;;
51438;SDS011;38816;51.142;-0.974;2022-10-30T02:00:21;21.70;;;2.55;;
51438;SDS011;38816;51.142;-0.974;2022-10-30T02:02:47;23.00;;;2.60;;
51438;SDS011;38816;51.142;-0.974;2022-10-30T02:05:48;32.63;;;3.22;;
51438;SDS011;38816;51.142;-0.974;2022-10-30T02:08:07;30.63;;;2.40;;
51438;SDS011;38816;51.142;-0.974;2022-10-30T02:10:33;26.20;;;2.50;;
51438;SDS011;38816;51.142;-0.974;2022-10-30T02:13:01;23.85;;;3.28;;
51438;SDS011;38816;51.142;-0.974;2022-10-30T02:15:26;31.95;;;2.70;;
51438;SDS011;38816;51.142;-0.974;2022-10-30T02:17:52;28.45;;;3.00;;
51438;SDS011;38816;51.142;-0.974;2022-10-30T02:20:19;26.00;;;2.75;;
51438;SDS011;38816;51.142;-0.974;2022-10-30T02:22:45;31.95;;;2.90;;
51438;SDS011;38816;51.142;-0.974;2022-10-30T02:25:12;38.17;;;3.20;;
51438;SDS011;38816;51.142;-0.974;2022-10-30T02:27:38;28.95;;;3.20;;
51438;SDS011;38816;51.142;-0.974;2022-10-30T02:30:03;29.15;;;2.72;;
51438;SDS011;38816;51.142;-0.974;2022-10-30T02:32:29;39.05;;;3.53;;
51438;SDS011;38816;51.142;-0.974;2022-10-30T02:34:55;37.30;;;4.82;;
51438;SDS011;38816;51.142;-0.974;2022-10-30T02:37:20;36.47;;;4.22;;
51438;SDS011;38816;51.142;-0.974;2022-10-30T02:39:45;30.95;;;3.38;;
51438;SDS011;38816;51.142;-0.974;2022-10-30T02:42:11;40.78;;;3.97;;
51438;SDS011;38816;51.142;-0.974;2022-10-30T02:44:36;35.38;;;3.33;;
51438;SDS011;38816;51.142;-0.974;2022-10-30T02:47:02;29.80;;;3.35;;
51438;SDS011;38816;51.142;-0.974;2022-10-30T02:49:27;28.27;;;3.13;;
51438;SDS011;38816;51.142;-0.974;2022-10-30T02:51:52;36.75;;;4.45;;
51438;SDS011;38816;51.142;-0.974;2022-10-30T02:54:18;38.60;;;3.30;;
51438;SDS011;38816;51.142;-0.974;2022-10-30T02:56:43;28.75;;;2.88;;
51438;SDS011;38816;51.142;-0.974;2022-10-30T02:59:09;43.35;;;3.88;;
51438;SDS011;38816;51.142;-0.974;2022-10-30T03:01:34;42.55;;;5.53;;
51438;SDS011;38816;51.142;-0.974;2022-10-30T03:03:59;31.27;;;2.90;;
51438;SDS011;38816;51.142;-0.974;2022-10-30T03:06:25;45.47;;;3.95;;
51438;SDS011;38816;51.142;-0.974;2022-10-30T03:08:51;34.17;;;3.33;;
51438;SDS011;38816;51.142;-0.974;2022-10-30T03:11:17;34.17;;;3.20;;
51438;SDS011;38816;51.142;-0.974;2022-10-30T03:13:44;37.15;;;3.20;;
51438;SDS011;38816;51.142;-0.974;2022-10-30T03:16:14;23.50;;;2.85;;
51438;SDS011;38816;51.142;-0.974;2022-10-30T03:18:42;34.83;;;3.78;;
51438;SDS011;38816;51.142;-0.974;2022-10-30T03:21:09;30.02;;;3.08;;
51438;SDS011;38816;51.142;-0.974;2022-10-30T03:23:36;38.90;;;3.63;;
51438;SDS011;38816;51.142;-0.974;2022-10-30T03:26:02;37.53;;;3.25;;
51438;SDS011;38816;51.142;-0.974;2022-10-30T03:28:28;30.33;;;3.50;;
51438;SDS011;38816;51.142;-0.974;2022-10-30T03:30:59;27.30;;;3.20;;
51438;SDS011;38816;51.142;-0.974;2022-10-30T03:33:25;30.63;;;3.08;;
51438;SDS011;38816;51.142;-0.974;2022-10-30T03:35:50;32.42;;;3.25;;
51438;SDS011;38816;51.142;-0.974;2022-10-30T03:38:16;40.65;;;3.22;;
51438;SDS011;38816;51.142;-0.974;2022-10-30T03:40:41;27.67;;;2.75;;
51438;SDS011;38816;51.142;-0.974;2022-10-30T03:43:07;39.90;;;3.38;;
51438;SDS011;38816;51.142;-0.974;2022-10-30T03:45:32;34.75;;;2.92;;
51438;SDS011;38816;51.142;-0.974;2022-10-30T03:47:59;41.40;;;3.65;;
51438;SDS011;38816;51.142;-0.974;2022-10-30T03:50:25;32.22;;;3.00;;
51438;SDS011;38816;51.142;-0.974;2022-10-30T03:52:52;32.58;;;3.60;;
51438;SDS011;38816;51.142;-0.974;2022-10-30T03:55:18;39.70;;;3.40;;
51438;SDS011;38816;51.142;-0.974;2022-10-30T03:57:43;32.40;;;3.33;;
51438;SDS011;38816;51.142;-0.974;2022-10-30T04:00:09;26.80;;;3.05;;
51438;SDS011;38816;51.142;-0.974;2022-10-30T04:02:35;38.08;;;3.38;;
51438;SDS011;38816;51.142;-0.974;2022-10-30T04:05:00;40.67;;;3.53;;
51438;SDS011;38816;51.142;-0.974;2022-10-30T04:07:26;29.55;;;3.78;;
51438;SDS011;38816;51.142;-0.974;2022-10-30T04:09:51;34.50;;;3.15;;
51438;SDS011;38816;51.142;-0.974;2022-10-30T04:12:17;27.60;;;2.75;;
51438;SDS011;38816;51.142;-0.974;2022-10-30T04:14:42;31.60;;;3.10;;
51438;SDS011;38816;51.142;-0.974;2022-10-30T04:17:07;28.65;;;2.92;;
51438;SDS011;38816;51.142;-0.974;2022-10-30T04:19:33;30.52;;;3.20;;
51438;SDS011;38816;51.142;-0.974;2022-10-30T04:21:58;29.80;;;3.50;;
51438;SDS011;38816;51.142;-0.974;2022-10-30T04:24:23;31.33;;;3.08;;
51438;SDS011;38816;51.142;-0.974;2022-10-30T04:26:49;26.48;;;3.10;;
51438;SDS011;38816;51.142;-0.974;2022-10-30T04:29:14;35.17;;;3.50;;
51438;SDS011;38816;51.142;-0.974;2022-10-30T04:31:40;36.83;;;3.13;;
51438;SDS011;38816;51.142;-0.974;2022-10-30T04:34:05;35.95;;;3.00;;
51438;SDS011;38816;51.142;-0.974;2022-10-30T04:36:30;35.13;;;4.07;;
51438;SDS011;38816;51.142;-0.974;2022-10-30T04:38:58;35.72;;;2.88;;
51438;SDS011;38816;51.142;-0.974;2022-10-30T04:41:24;27.52;;;2.85;;
51438;SDS011;38816;51.142;-0.974;2022-10-30T04:43:49;30.02;;;3.25;;
51438;SDS011;38816;51.142;-0.974;2022-10-30T04:46:15;31.50;;;3.35;;
51438;SDS011;38816;51.142;-0.974;2022-10-30T04:48:41;36.17;;;3.10;;
51438;SDS011;38816;51.142;-0.974;2022-10-30T04:51:07;41.17;;;4.43;;
51438;SDS011;38816;51.142;-0.974;2022-10-30T04:53:33;33.10;;;2.60;;
51438;SDS011;38816;51.142;-0.974;2022-10-30T04:55:58;34.75;;;3.20;;
51438;SDS011;38816;51.142;-0.974;2022-10-30T04:58:24;26.13;;;3.03;;
51438;SDS011;38816;51.142;-0.974;2022-10-30T05:03:49;36.28;;;3.08;;
51438;SDS011;38816;51.142;-0.974;2022-10-30T05:08:47;36.95;;;3.55;;
51438;SDS011;38816;51.142;-0.974;2022-10-30T05:11:13;36.80;;;3.60;;
51438;SDS011;38816;51.142;-0.974;2022-10-30T05:13:38;30.77;;;3.85;;
51438;SDS011;38816;51.142;-0.974;2022-10-30T05:16:04;35.47;;;2.92;;
51438;SDS011;38816;51.142;-0.974;2022-10-30T05:18:29;34.55;;;3.67;;
51438;SDS011;38816;51.142;-0.974;2022-10-30T05:20:55;29.20;;;3.25;;
51438;SDS011;38816;51.142;-0.974;2022-10-30T05:23:20;38.72;;;4.35;;
51438;SDS011;38816;51.142;-0.974;2022-10-30T05:25:45;30.45;;;2.67;;
51438;SDS011;38816;51.142;-0.974;2022-10-30T05:28:11;28.13;;;3.80;;
51438;SDS011;38816;51.142;-0.974;2022-10-30T05:30:36;40.03;;;3.38;;
51438;SDS011;38816;51.142;-0.974;2022-10-30T05:33:05;32.63;;;3.08;;
51438;SDS011;38816;51.142;-0.974;2022-10-30T05:35:33;35.70;;;3.67;;
51438;SDS011;38816;51.142;-0.974;2022-10-30T05:38:00;27.90;;;3.35;;
51438;SDS011;38816;51.142;-0.974;2022-10-30T05:40:26;38.60;;;3.55;;
51438;SDS011;38816;51.142;-0.974;2022-10-30T05:42:52;24.20;;;3.00;;
51438;SDS011;38816;51.142;-0.974;2022-10-30T05:45:17;36.08;;;3.15;;
51438;SDS011;38816;51.142;-0.974;2022-10-30T05:47:43;35.83;;;4.10;;
51438;SDS011;38816;51.142;-0.974;2022-10-30T05:50:08;33.75;;;3.53;;
51438;SDS011;38816;51.142;-0.974;2022-10-30T05:52:36;32.22;;;5.05;;
51438;SDS011;38816;51.142;-0.974;2022-10-30T05:55:01;34.22;;;3.92;;
51438;SDS011;38816;51.142;-0.974;2022-10-30T05:57:27;33.22;;;4.60;;
51438;SDS011;38816;51.142;-0.974;2022-10-30T05:59:54;39.45;;;3.72;;
51438;SDS011;38816;51.142;-0.974;2022-10-30T06:02:19;36.35;;;5.00;;
51438;SDS011;38816;51.142;-0.974;2022-10-30T06:04:45;32.28;;;3.92;;
51438;SDS011;38816;51.142;-0.974;2022-10-30T06:07:10;28.42;;;3.00;;
51438;SDS011;38816;51.142;-0.974;2022-10-30T06:09:36;38.92;;;3.30;;
51438;SDS011;38816;51.142;-0.974;2022-10-30T06:12:01;26.27;;;3.47;;
51438;SDS011;38816;51.142;-0.974;2022-10-30T06:14:27;32.33;;;3.17;;
51438;SDS011;38816;51.142;-0.974;2022-10-30T06:16:52;27.38;;;3.28;;
51438;SDS011;38816;51.142;-0.974;2022-10-30T06:19:18;35.10;;;3.70;;
51438;SDS011;38816;51.142;-0.974;2022-10-30T06:21:43;30.17;;;2.90;;
51438;SDS011;38816;51.142;-0.974;2022-10-30T06:24:08;33.25;;;2.80;;
51438;SDS011;38816;51.142;-0.974;2022-10-30T06:26:34;37.45;;;3.17;;
51438;SDS011;38816;51.142;-0.974;2022-10-30T06:28:59;28.63;;;3.17;;
51438;SDS011;38816;51.142;-0.974;2022-10-30T06:31:24;29.88;;;2.70;;
51438;SDS011;38816;51.142;-0.974;2022-10-30T06:33:50;24.25;;;2.67;;
51438;SDS011;38816;51.142;-0.974;2022-10-30T06:36:15;23.20;;;2.53;;
51438;SDS011;38816;51.142;-0.974;2022-10-30T06:38:41;36.95;;;2.88;;
51438;SDS011;38816;51.142;-0.974;2022-10-30T06:41:07;20.40;;;2.40;;
51438;SDS011;38816;51.142;-0.974;2022-10-30T06:43:33;26.27;;;3.17;;
51438;SDS011;38816;51.142;-0.974;2022-10-30T06:45:58;28.77;;;3.67;;
51438;SDS011;38816;51.142;-0.974;2022-10-30T06:48:24;27.20;;;3.00;;
51438;SDS011;38816;51.142;-0.974;2022-10-30T06:50:56;28.50;;;2.88;;
51438;SDS011;38816;51.142;-0.974;2022-10-30T06:53:23;26.58;;;3.00;;
51438;SDS011;38816;51.142;-0.974;2022-10-30T06:55:53;24.58;;;2.97;;
51438;SDS011;38816;51.142;-0.974;2022-10-30T06:58:20;26.55;;;2.65;;
51438;SDS011;38816;51.142;-0.974;2022-10-30T07:00:45;20.83;;;2.35;;
51438;SDS011;38816;51.142;-0.974;2022-10-30T07:03:10;23.42;;;2.95;;
51438;SDS011;38816;51.142;-0.974;2022-10-30T07:05:36;19.98;;;2.45;;
51438;SDS011;38816;51.142;-0.974;2022-10-30T07:08:01;24.25;;;2.90;;
51438;SDS011;38816;51.142;-0.974;2022-10-30T07:10:27;23.52;;;2.70;;
51438;SDS011;38816;51.142;-0.974;2022-10-30T07:12:53;27.67;;;2.45;;
51438;SDS011;38816;51.142;-0.974;2022-10-30T07:15:19;22.75;;;2.53;;
51438;SDS011;38816;51.142;-0.974;2022-10-30T07:17:58;20.52;;;3.08;;
51438;SDS011;38816;51.142;-0.974;2022-10-30T07:20:26;21.20;;;2.95;;
51438;SDS011;38816;51.142;-0.974;2022-10-30T07:22:52;26.58;;;2.40;;
51438;SDS011;38816;51.142;-0.974;2022-10-30T07:25:18;21.45;;;2.90;;
51438;SDS011;38816;51.142;-0.974;2022-10-30T07:27:43;25.58;;;2.40;;
51438;SDS011;38816;51.142;-0.974;2022-10-30T07:30:14;25.27;;;2.95;;
51438;SDS011;38816;51.142;-0.974;2022-10-30T07:32:41;24.00;;;2.67;;
51438;SDS011;38816;51.142;-0.974;2022-10-30T07:35:07;22.35;;;2.97;;
51438;SDS011;38816;51.142;-0.974;2022-10-30T07:37:34;20.67;;;2.78;;
51438;SDS011;38816;51.142;-0.974;2022-10-30T07:39:59;23.00;;;3.00;;
51438;SDS011;38816;51.142;-0.974;2022-10-30T07:42:24;19.00;;;2.63;;
51438;SDS011;38816;51.142;-0.974;2022-10-30T07:44:50;15.68;;;2.65;;
51438;SDS011;38816;51.142;-0.974;2022-10-30T07:47:15;23.58;;;2.60;;
51438;SDS011;38816;51.142;-0.974;2022-10-30T07:49:41;16.70;;;2.83;;
51438;SDS011;38816;51.142;-0.974;2022-10-30T07:52:06;23.48;;;2.50;;
51438;SDS011;38816;51.142;-0.974;2022-10-30T07:54:32;14.45;;;2.15;;
51438;SDS011;38816;51.142;-0.974;2022-10-30T07:56:57;20.80;;;2.53;;
51438;SDS011;38816;51.142;-0.974;2022-10-30T07:59:23;27.23;;;2.80;;
51438;SDS011;38816;51.142;-0.974;2022-10-30T08:01:49;19.83;;;2.22;;
51438;SDS011;38816;51.142;-0.974;2022-10-30T08:04:14;14.13;;;2.20;;
51438;SDS011;38816;51.142;-0.974;2022-10-30T08:06:40;13.60;;;1.88;;
51438;SDS011;38816;51.142;-0.974;2022-10-30T08:09:06;17.10;;;2.10;;
51438;SDS011;38816;51.142;-0.974;2022-10-30T08:11:32;18.10;;;2.00;;
51438;SDS011;38816;51.142;-0.974;2022-10-30T08:13:57;17.52;;;2.75;;
51438;SDS011;38816;51.142;-0.974;2022-10-30T08:16:23;17.25;;;1.75;;
51438;SDS011;38816;51.142;-0.974;2022-10-30T08:18:49;14.65;;;1.55;;
51438;SDS011;38816;51.142;-0.974;2022-10-30T08:21:14;21.38;;;2.67;;
51438;SDS011;38816;51.142;-0.974;2022-10-30T08:23:40;12.80;;;1.77;;
51438;SDS011;38816;51.142;-0.974;2022-10-30T08:26:05;13.43;;;1.75;;
51438;SDS011;38816;51.142;-0.974;2022-10-30T08:28:31;15.70;;;2.30;;
51438;SDS011;38816;51.142;-0.974;2022-10-30T08:30:57;14.13;;;2.65;;
51438;SDS011;38816;51.142;-0.974;2022-10-30T08:33:23;12.80;;;1.48;;
51438;SDS011;38816;51.142;-0.974;2022-10-30T08:35:50;11.40;;;1.80;;
51438;SDS011;38816;51.142;-0.974;2022-10-30T08:38:17;14.48;;;1.85;;
51438;SDS011;38816;51.142;-0.974;2022-10-30T08:40:43;16.02;;;1.92;;
51438;SDS011;38816;51.142;-0.974;2022-10-30T08:43:08;16.02;;;2.08;;
51438;SDS011;38816;51.142;-0.974;2022-10-30T08:45:35;12.55;;;1.52;;
51438;SDS011;38816;51.142;-0.974;2022-10-30T08:48:02;13.23;;;2.03;;
51438;SDS011;38816;51.142;-0.974;2022-10-30T08:50:29;13.48;;;2.15;;
51438;SDS011;38816;51.142;-0.974;2022-10-30T08:52:55;23.95;;;2.53;;
51438;SDS011;38816;51.142;-0.974;2022-10-30T08:55:20;20.25;;;3.03;;
51438;SDS011;38816;51.142;-0.974;2022-10-30T08:57:46;19.60;;;2.10;;
51438;SDS011;38816;51.142;-0.974;2022-10-30T09:00:11;22.33;;;2.42;;
51438;SDS011;38816;51.142;-0.974;2022-10-30T09:02:37;15.65;;;2.70;;
51438;SDS011;38816;51.142;-0.974;2022-10-30T09:05:06;13.43;;;2.10;;
51438;SDS011;38816;51.142;-0.974;2022-10-30T09:07:33;15.88;;;2.33;;
51438;SDS011;38816;51.142;-0.974;2022-10-30T09:09:58;16.55;;;2.30;;
51438;SDS011;38816;51.142;-0.974;2022-10-30T09:12:24;14.68;;;1.85;;
51438;SDS011;38816;51.142;-0.974;2022-10-30T09:14:49;21.83;;;2.45;;
51438;SDS011;38816;51.142;-0.974;2022-10-30T09:17:15;19.75;;;2.25;;
51438;SDS011;38816;51.142;-0.974;2022-10-30T09:19:40;17.55;;;1.95;;
51438;SDS011;38816;51.142;-0.974;2022-10-30T09:22:06;11.95;;;2.17;;
51438;SDS011;38816;51.142;-0.974;2022-10-30T09:24:31;13.80;;;1.60;;
51438;SDS011;38816;51.142;-0.974;2022-10-30T09:26:57;15.50;;;1.98;;
51438;SDS011;38816;51.142;-0.974;2022-10-30T09:29:22;11.73;;;1.92;;
51438;SDS011;38816;51.142;-0.974;2022-10-30T09:31:48;15.98;;;1.98;;
51438;SDS011;38816;51.142;-0.974;2022-10-30T09:34:13;14.70;;;2.17;;
51438;SDS011;38816;51.142;-0.974;2022-10-30T09:36:39;14.20;;;1.52;;
51438;SDS011;38816;51.142;-0.974;2022-10-30T09:39:07;13.68;;;2.10;;
51438;SDS011;38816;51.142;-0.974;2022-10-30T09:41:44;15.10;;;1.48;;
51438;SDS011;38816;51.142;-0.974;2022-10-30T09:58:51;8.23;;;1.52;;
51438;SDS011;38816;51.142;-0.974;2022-10-30T10:01:43;10.80;;;1.17;;
51438;SDS011;38816;51.142;-0.974;2022-10-30T10:04:35;11.02;;;1.35;;
51438;SDS011;38816;51.142;-0.974;2022-10-30T10:09:46;8.43;;;1.77;;
51438;SDS011;38816;51.142;-0.974;2022-10-30T10:12:24;6.07;;;0.90;;
51438;SDS011;38816;51.142;-0.974;2022-10-30T10:14:54;9.10;;;1.23;;
51438;SDS011;38816;51.142;-0.974;2022-10-30T10:17:28;8.20;;;1.00;;
51438;SDS011;38816;51.142;-0.974;2022-10-30T10:19:58;8.05;;;1.20;;
51438;SDS011;38816;51.142;-0.974;2022-10-30T10:22:38;9.95;;;1.20;;
51438;SDS011;38816;51.142;-0.974;2022-10-30T10:25:11;10.00;;;1.30;;
51438;SDS011;38816;51.142;-0.974;2022-10-30T10:30:08;6.97;;;1.08;;
51438;SDS011;38816;51.142;-0.974;2022-10-30T10:47:01;11.07;;;2.72;;
51438;SDS011;38816;51.142;-0.974;2022-10-30T10:50:00;13.73;;;1.67;;
51438;SDS011;38816;51.142;-0.974;2022-10-30T10:52:50;10.02;;;1.65;;
51438;SDS011;38816;51.142;-0.974;2022-10-30T10:55:20;11.07;;;1.40;;
51438;SDS011;38816;51.142;-0.974;2022-10-30T10:57:48;12.98;;;1.38;;
51438;SDS011;38816;51.142;-0.974;2022-10-30T11:00:18;6.07;;;1.30;;
51438;SDS011;38816;51.142;-0.974;2022-10-30T11:02:47;10.73;;;1.60;;
51438;SDS011;38816;51.142;-0.974;2022-10-30T11:05:56;11.70;;;1.50;;
51438;SDS011;38816;51.142;-0.974;2022-10-30T11:08:27;7.95;;;1.60;;
51438;SDS011;38816;51.142;-0.974;2022-10-30T11:10:58;14.18;;;1.80;;
51438;SDS011;38816;51.142;-0.974;2022-10-30T11:13:26;6.88;;;1.77;;
51438;SDS011;38816;51.142;-0.974;2022-10-30T11:18:22;10.57;;;1.48;;
51438;SDS011;38816;51.142;-0.974;2022-10-30T11:20:56;7.28;;;1.77;;
51438;SDS011;38816;51.142;-0.974;2022-10-30T11:23:31;11.38;;;1.55;;
51438;SDS011;38816;51.142;-0.974;2022-10-30T11:25:58;8.50;;;1.52;;
51438;SDS011;38816;51.142;-0.974;2022-10-30T11:28:38;12.93;;;2.20;;
51438;SDS011;38816;51.142;-0.974;2022-10-30T11:31:16;9.48;;;1.70;;
51438;SDS011;38816;51.142;-0.974;2022-10-30T11:33:58;9.98;;;1.40;;
51438;SDS011;38816;51.142;-0.974;2022-10-30T11:36:24;12.95;;;2.17;;
51438;SDS011;38816;51.142;-0.974;2022-10-30T11:38:50;12.40;;;1.90;;
51438;SDS011;38816;51.142;-0.974;2022-10-30T11:41:16;12.02;;;1.60;;
51438;SDS011;38816;51.142;-0.974;2022-10-30T11:43:43;14.88;;;2.25;;
51438;SDS011;38816;51.142;-0.974;2022-10-30T11:46:10;12.07;;;1.90;;
51438;SDS011;38816;51.142;-0.974;2022-10-30T11:48:44;19.33;;;4.20;;
51438;SDS011;38816;51.142;-0.974;2022-10-30T11:51:10;16.00;;;2.03;;
51438;SDS011;38816;51.142;-0.974;2022-10-30T11:53:41;12.05;;;2.22;;
51438;SDS011;38816;51.142;-0.974;2022-10-30T11:56:13;8.02;;;1.60;;
51438;SDS011;38816;51.142;-0.974;2022-10-30T11:58:43;11.68;;;1.92;;
51438;SDS011;38816;51.142;-0.974;2022-10-30T12:01:15;13.23;;;2.00;;
51438;SDS011;38816;51.142;-0.974;2022-10-30T12:03:42;10.75;;;1.88;;
51438;SDS011;38816;51.142;-0.974;2022-10-30T12:06:08;10.40;;;1.77;;
51438;SDS011;38816;51.142;-0.974;2022-10-30T12:08:40;11.32;;;1.70;;
51438;SDS011;38816;51.142;-0.974;2022-10-30T12:11:05;13.25;;;1.85;;
51438;SDS011;38816;51.142;-0.974;2022-10-30T12:13:32;17.17;;;2.95;;
51438;SDS011;38816;51.142;-0.974;2022-10-30T12:16:23;15.20;;;2.42;;
51438;SDS011;38816;51.142;-0.974;2022-10-30T12:18:51;10.13;;;1.90;;
51438;SDS011;38816;51.142;-0.974;2022-10-30T12:21:22;19.70;;;2.47;;
51438;SDS011;38816;51.142;-0.974;2022-10-30T12:23:56;14.38;;;2.30;;
51438;SDS011;38816;51.142;-0.974;2022-10-30T12:26:26;18.27;;;1.95;;
51438;SDS011;38816;51.142;-0.974;2022-10-30T12:28:54;8.65;;;1.98;;
51438;SDS011;38816;51.142;-0.974;2022-10-30T12:32:10;16.45;;;2.40;;
51438;SDS011;38816;51.142;-0.974;2022-10-30T12:36:52;13.60;;;1.40;;
51438;SDS011;38816;51.142;-0.974;2022-10-30T12:39:48;10.70;;;1.75;;
51438;SDS011;38816;51.142;-0.974;2022-10-30T12:42:19;15.88;;;1.83;;
51438;SDS011;38816;51.142;-0.974;2022-10-30T12:52:48;12.53;;;1.90;;
51438;SDS011;38816;51.142;-0.974;2022-10-30T12:55:32;18.48;;;1.92;;
51438;SDS011;38816;51.142;-0.974;2022-10-30T13:03:45;11.63;;;1.95;;
51438;SDS011;38816;51.142;-0.974;2022-10-30T13:06:22;19.20;;;2.22;;
51438;SDS011;38816;51.142;-0.974;2022-10-30T13:09:03;18.55;;;2.50;;
51438;SDS011;38816;51.142;-0.974;2022-10-30T13:11:47;11.35;;;2.30;;
51438;SDS011;38816;51.142;-0.974;2022-10-30T13:14:18;13.32;;;1.58;;
51438;SDS011;38816;51.142;-0.974;2022-10-30T13:16:49;14.30;;;1.90;;
51438;SDS011;38816;51.142;-0.974;2022-10-30T13:19:15;11.52;;;1.88;;
51438;SDS011;38816;51.142;-0.974;2022-10-30T13:21:42;10.07;;;1.83;;
51438;SDS011;38816;51.142;-0.974;2022-10-30T13:24:19;14.05;;;1.95;;
51438;SDS011;38816;51.142;-0.974;2022-10-30T13:29:49;11.95;;;1.80;;
51438;SDS011;38816;51.142;-0.974;2022-10-30T13:37:34;10.70;;;2.03;;
51438;SDS011;38816;51.142;-0.974;2022-10-30T13:40:22;14.40;;;1.83;;
51438;SDS011;38816;51.142;-0.974;2022-10-30T13:46:25;11.10;;;1.60;;
51438;SDS011;38816;51.142;-0.974;2022-10-30T13:49:10;8.32;;;1.52;;
51438;SDS011;38816;51.142;-0.974;2022-10-30T13:52:31;10.37;;;1.63;;
51438;SDS011;38816;51.142;-0.974;2022-10-30T13:57:33;14.77;;;2.22;;
51438;SDS011;38816;51.142;-0.974;2022-10-30T14:07:56;10.50;;;2.20;;
51438;SDS011;38816;51.142;-0.974;2022-10-30T14:10:35;13.93;;;1.80;;
51438;SDS011;38816;51.142;-0.974;2022-10-30T14:13:09;13.85;;;2.15;;
51438;SDS011;38816;51.142;-0.974;2022-10-30T14:15:45;15.43;;;2.45;;
51438;SDS011;38816;51.142;-0.974;2022-10-30T14:20:55;15.23;;;2.70;;
51438;SDS011;38816;51.142;-0.974;2022-10-30T14:28:35;10.90;;;1.67;;
51438;SDS011;38816;51.142;-0.974;2022-10-30T14:31:06;13.55;;;2.17;;
51438;SDS011;38816;51.142;-0.974;2022-10-30T14:33:52;11.68;;;2.05;;
51438;SDS011;38816;51.142;-0.974;2022-10-30T14:36:21;13.35;;;1.83;;
51438;SDS011;38816;51.142;-0.974;2022-10-30T14:46:52;9.30;;;2.08;;
51438;SDS011;38816;51.142;-0.974;2022-10-30T14:49:33;17.40;;;2.20;;
51438;SDS011;38816;51.142;-0.974;2022-10-30T14:52:14;11.50;;;1.73;;
51438;SDS011;38816;51.142;-0.974;2022-10-30T14:57:19;17.70;;;3.33;;
51438;SDS011;38816;51.142;-0.974;2022-10-30T15:08:22;19.65;;;2.47;;
51438;SDS011;38816;51.142;-0.974;2022-10-30T15:13:46;12.85;;;1.88;;
51438;SDS011;38816;51.142;-0.974;2022-10-30T15:16:14;15.93;;;2.08;;
51438;SDS011;38816;51.142;-0.974;2022-10-30T15:18:44;18.80;;;2.45;;
51438;SDS011;38816;51.142;-0.974;2022-10-30T15:21:20;13.30;;;2.00;;
51438;SDS011;38816;51.142;-0.974;2022-10-30T15:23:49;15.77;;;2.50;;
51438;SDS011;38816;51.142;-0.974;2022-10-30T15:26:21;14.75;;;2.47;;
51438;SDS011;38816;51.142;-0.974;2022-10-30T15:28:50;15.85;;;2.38;;
51438;SDS011;38816;51.142;-0.974;2022-10-30T15:31:24;15.80;;;2.15;;
51438;SDS011;38816;51.142;-0.974;2022-10-30T15:33:51;12.35;;;2.38;;
51438;SDS011;38816;51.142;-0.974;2022-10-30T15:36:55;20.98;;;2.03;;
51438;SDS011;38816;51.142;-0.974;2022-10-30T15:39:14;15.40;;;1.90;;
51438;SDS011;38816;51.142;-0.974;2022-10-30T15:41:55;16.95;;;2.20;;
51438;SDS011;38816;51.142;-0.974;2022-10-30T15:44:26;12.85;;;2.03;;
51438;SDS011;38816;51.142;-0.974;2022-10-30T15:46:54;9.93;;;2.20;;
51438;SDS011;38816;51.142;-0.974;2022-10-30T15:49:27;10.73;;;1.90;;
51438;SDS011;38816;51.142;-0.974;2022-10-30T15:51:56;18.33;;;2.15;;
51438;SDS011;38816;51.142;-0.974;2022-10-30T15:54:24;11.00;;;1.95;;
51438;SDS011;38816;51.142;-0.974;2022-10-30T15:56:53;12.45;;;1.90;;
51438;SDS011;38816;51.142;-0.974;2022-10-30T15:59:22;12.85;;;2.03;;
51438;SDS011;38816;51.142;-0.974;2022-10-30T16:01:57;18.60;;;2.05;;
51438;SDS011;38816;51.142;-0.974;2022-10-30T16:04:23;9.63;;;1.85;;
51438;SDS011;38816;51.142;-0.974;2022-10-30T16:06:54;14.55;;;1.95;;
51438;SDS011;38816;51.142;-0.974;2022-10-30T16:09:21;15.63;;;2.10;;
51438;SDS011;38816;51.142;-0.974;2022-10-30T16:11:48;17.15;;;2.30;;
51438;SDS011;38816;51.142;-0.974;2022-10-30T16:14:16;13.02;;;1.95;;
51438;SDS011;38816;51.142;-0.974;2022-10-30T16:16:46;14.93;;;2.35;;
51438;SDS011;38816;51.142;-0.974;2022-10-30T16:19:15;11.48;;;2.15;;
51438;SDS011;38816;51.142;-0.974;2022-10-30T16:21:47;13.40;;;2.25;;
51438;SDS011;38816;51.142;-0.974;2022-10-30T16:24:13;12.80;;;2.22;;
51438;SDS011;38816;51.142;-0.974;2022-10-30T16:26:40;11.90;;;1.83;;
51438;SDS011;38816;51.142;-0.974;2022-10-30T16:31:37;17.95;;;2.58;;
51438;SDS011;38816;51.142;-0.974;2022-10-30T16:34:03;23.02;;;2.83;;
51438;SDS011;38816;51.142;-0.974;2022-10-30T16:36:34;18.17;;;2.50;;
51438;SDS011;38816;51.142;-0.974;2022-10-30T16:39:00;18.30;;;2.13;;
51438;SDS011;38816;51.142;-0.974;2022-10-30T16:41:27;16.73;;;2.30;;
51438;SDS011;38816;51.142;-0.974;2022-10-30T16:49:17;18.67;;;2.03;;
51438;SDS011;38816;51.142;-0.974;2022-10-30T16:51:44;14.30;;;2.35;;
51438;SDS011;38816;51.142;-0.974;2022-10-30T16:54:18;18.70;;;2.38;;
51438;SDS011;38816;51.142;-0.974;2022-10-30T16:56:47;17.92;;;2.50;;
51438;SDS011;38816;51.142;-0.974;2022-10-30T16:59:23;19.85;;;2.20;;